Time;durP1;ratioP1;P1;durP2;ratioP2;P2;SDS_P1;SDS_P2;PMS_P1;PMS_P2;Temp;Humidity;BMP_temperature;BMP_pressure;BME280_temperature;BME280_humidity;BME280_pressure;Samples;Min_cycle;Max_cycle;Signal;HPM_P1;HPM_P2
2021/12/28 00:01:17;;;;;;;58.47;33.13;;;;;;;7.06;100.00;99458.81;10540523;28;20059;-60
2021/12/28 00:06:20;;;;;;;48.80;30.80;;;;;;;7.17;100.00;99448.53;10540169;28;20414;-60
2021/12/28 00:11:22;;;;;;;53.00;27.75;;;;;;;7.17;100.00;99434.72;10540391;28;20048;-60
2021/12/28 00:16:31;;;;;;;50.03;26.08;;;;;;;7.13;100.00;99441.03;10539969;28;20040;-59
2021/12/28 00:21:33;;;;;;;50.67;30.08;;;;;;;6.99;100.00;99432.38;10540209;28;20052;-60
2021/12/28 00:26:36;;;;;;;62.95;32.65;;;;;;;6.92;100.00;99435.44;10540188;28;20048;-60
2021/12/28 00:31:39;;;;;;;57.97;32.17;;;;;;;6.85;100.00;99438.44;10539817;28;20048;-60
2021/12/28 00:36:41;;;;;;;53.38;28.85;;;;;;;6.79;100.00;99433.63;10540136;28;20050;-60
2021/12/28 00:41:43;;;;;;;50.50;26.83;;;;;;;6.75;100.00;99434.75;10538248;28;20048;-60
2021/12/28 00:46:46;;;;;;;71.80;32.20;;;;;;;6.56;100.00;99434.25;10539674;28;20040;-60
2021/12/28 00:51:48;;;;;;;38.38;21.48;;;;;;;6.67;100.00;99426.59;10539273;28;20048;-60
2021/12/28 00:56:50;;;;;;;57.80;24.60;;;;;;;6.21;100.00;99427.69;10539097;28;20483;-60
2021/12/28 01:01:53;;;;;;;60.45;26.65;;;;;;;6.02;100.00;99421.94;10539185;28;20135;-60
2021/12/28 01:06:55;;;;;;;42.55;21.15;;;;;;;6.18;100.00;99421.84;10537612;28;20403;-60
2021/12/28 01:12:04;;;;;;;41.60;22.35;;;;;;;5.94;100.00;99420.59;10544428;28;20055;-60
2021/12/28 01:17:06;;;;;;;47.45;21.52;;;;;;;5.83;100.00;99417.81;10546953;28;20048;-59
2021/12/28 01:22:09;;;;;;;40.55;20.95;;;;;;;5.89;100.00;99419.22;10546605;28;20048;-59
2021/12/28 01:27:11;;;;;;;49.88;21.85;;;;;;;5.76;100.00;99419.94;10546585;28;20048;-59
2021/12/28 01:32:14;;;;;;;42.75;19.17;;;;;;;5.67;100.00;99423.09;10545534;28;20488;-59
2021/12/28 01:37:16;;;;;;;47.72;19.20;;;;;;;5.68;100.00;99416.13;10546328;28;20040;-59
2021/12/28 01:42:18;;;;;;;53.60;19.85;;;;;;;5.56;100.00;99418.53;10545755;28;20055;-59
2021/12/28 01:47:21;;;;;;;38.13;18.65;;;;;;;5.53;100.00;99417.84;10546213;28;20044;-59
2021/12/28 01:52:23;;;;;;;36.15;17.45;;;;;;;5.64;100.00;99412.88;10545330;28;20063;-59
2021/12/28 01:57:25;;;;;;;36.17;16.20;;;;;;;5.54;100.00;99406.56;10545484;28;20052;-59
2021/12/28 02:02:27;;;;;;;56.88;18.08;;;;;;;5.39;100.00;99403.91;10544779;28;20496;-59
2021/12/28 02:07:30;;;;;;;37.80;17.15;;;;;;;5.51;100.00;99406.72;10543663;28;20048;-59
2021/12/28 02:12:33;;;;;;;42.33;18.63;;;;;;;5.47;100.00;99408.69;10544287;28;20048;-60
2021/12/28 02:17:36;;;;;;;41.55;17.70;;;;;;;5.43;100.00;99394.22;10544266;28;20052;-60
2021/12/28 02:22:38;;;;;;;39.22;16.67;;;;;;;5.52;100.00;99405.81;10544663;28;20048;-60
2021/12/28 02:27:41;;;;;;;32.00;15.23;;;;;;;5.73;100.00;99403.69;10542731;28;20046;-60
2021/12/28 02:32:45;;;;;;;46.10;16.60;;;;;;;5.80;100.00;99394.63;10543790;28;20060;-60
2021/12/28 02:37:48;;;;;;;59.97;20.23;;;;;;;5.51;100.00;99383.38;10543542;28;20070;-60
2021/12/28 02:42:51;;;;;;;58.38;19.17;;;;;;;5.47;100.00;99377.53;10543323;28;20048;-60
2021/12/28 02:47:54;;;;;;;39.60;13.02;;;;;;;5.62;100.00;99380.16;10543734;28;20063;-60
2021/12/28 02:52:56;;;;;;;37.80;16.77;;;;;;;5.48;100.00;99379.22;10542828;28;20059;-59
2021/12/28 02:58:10;;;;;;;35.65;16.30;;;;;;;5.51;100.00;99373.81;10543516;28;20051;-59
2021/12/28 03:03:19;;;;;;;39.60;15.60;;;;;;;5.21;100.00;99358.28;10542527;28;20066;-59
2021/12/28 03:08:24;;;;;;;36.00;15.98;;;;;;;5.23;100.00;99351.25;10542836;28;20070;-59
2021/12/28 03:13:36;;;;;;;45.17;16.33;;;;;;;5.29;100.00;99345.69;10542504;28;20082;-59
2021/12/28 03:18:39;;;;;;;30.83;14.45;;;;;;;5.36;100.00;99349.63;10542273;28;20039;-59
2021/12/28 03:23:42;;;;;;;27.60;14.80;;;;;;;5.43;100.00;99354.44;10540470;28;20058;-59
2021/12/28 03:28:46;;;;;;;42.00;15.73;;;;;;;5.37;100.00;99348.66;10541392;28;20047;-59
2021/12/28 03:33:51;;;;;;;45.03;17.92;;;;;;;5.36;100.00;99339.22;10540625;28;20408;-60
2021/12/28 03:38:55;;;;;;;30.48;15.65;;;;;;;5.44;100.00;99332.75;10540966;28;20044;-60
2021/12/28 03:43:59;;;;;;;35.85;14.05;;;;;;;5.58;100.00;99325.81;10540804;28;20381;-60
2021/12/28 03:49:01;;;;;;;47.00;16.17;;;;;;;5.48;100.00;99318.63;10541000;28;20040;-60
2021/12/28 03:54:04;;;;;;;40.25;14.30;;;;;;;5.56;100.00;99309.50;10540272;28;20484;-60
2021/12/28 03:59:06;;;;;;;37.67;13.25;;;;;;;5.66;100.00;99301.13;10540492;28;20507;-60
2021/12/28 04:04:09;;;;;;;32.15;14.80;;;;;;;5.54;100.00;99289.72;10540094;28;20052;-60
2021/12/28 04:09:12;;;;;;;33.85;13.30;;;;;;;5.60;100.00;99286.78;10540699;28;20052;-59
2021/12/28 04:14:15;;;;;;;40.13;14.43;;;;;;;5.37;100.00;99291.56;10539889;28;20052;-60
2021/12/28 04:19:17;;;;;;;36.88;14.82;;;;;;;5.30;100.00;99284.25;10540428;28;20047;-60
2021/12/28 04:24:20;;;;;;;44.95;14.45;;;;;;;5.17;100.00;99278.94;10539645;28;20084;-59
2021/12/28 04:29:23;;;;;;;30.83;12.13;;;;;;;5.38;100.00;99276.84;10539573;28;20488;-60
2021/12/28 04:34:25;;;;;;;31.65;11.20;;;;;;;5.43;100.00;99279.16;10539333;28;20503;-59
2021/12/28 04:39:27;;;;;;;31.10;13.23;;;;;;;5.44;100.00;99279.06;10539543;28;20492;-59
2021/12/28 04:44:30;;;;;;;48.20;16.23;;;;;;;5.60;100.00;99284.19;10540544;28;20123;-59
2021/12/28 04:49:32;;;;;;;32.58;13.75;;;;;;;5.66;100.00;99281.19;10547877;28;20055;-59
2021/12/28 04:54:37;;;;;;;39.47;14.85;;;;;;;5.61;100.00;99278.03;10547298;28;20052;-59
2021/12/28 04:59:39;;;;;;;40.63;13.32;;;;;;;5.78;100.00;99269.19;10547692;28;20055;-59
2021/12/28 05:04:41;;;;;;;36.85;13.10;;;;;;;5.98;100.00;99269.78;10547455;28;20158;-59
2021/12/28 05:09:44;;;;;;;37.05;13.65;;;;;;;5.80;100.00;99272.56;10547950;28;20056;-59
2021/12/28 05:14:46;;;;;;;30.23;12.95;;;;;;;5.91;100.00;99262.31;10546835;28;20069;-59
2021/12/28 05:19:49;;;;;;;28.70;12.23;;;;;;;5.94;100.00;99259.53;10547343;28;20044;-59
2021/12/28 05:24:51;;;;;;;47.28;15.77;;;;;;;5.92;100.00;99248.41;10546450;28;20059;-60
2021/12/28 05:29:53;;;;;;;35.45;11.57;;;;;;;6.09;100.00;99239.59;10546604;28;20051;-60
2021/12/28 05:34:56;;;;;;;48.58;14.18;;;;;;;6.03;100.00;99237.34;10546231;28;20048;-60
2021/12/28 05:39:58;;;;;;;35.83;12.07;;;;;;;6.04;100.00;99241.63;10545884;28;20369;-61
2021/12/28 05:45:01;;;;;;;40.38;14.27;;;;;;;6.12;100.00;99231.59;10545920;28;20044;-60
2021/12/28 05:50:06;;;;;;;37.08;13.77;;;;;;;6.11;100.00;99226.50;10545366;28;20079;-60
2021/12/28 05:55:08;;;;;;;41.85;12.23;;;;;;;6.19;100.00;99226.84;10545744;28;20044;-60
2021/12/28 06:00:13;;;;;;;51.63;16.23;;;;;;;6.02;100.00;99214.94;10545579;28;20070;-60
2021/12/28 06:05:15;;;;;;;35.75;11.32;;;;;;;6.27;100.00;99218.53;10544733;28;20487;-60
2021/12/28 06:10:18;;;;;;;39.50;10.90;;;;;;;6.33;100.00;99218.13;10544993;28;20055;-60
2021/12/28 06:15:20;;;;;;;38.38;11.25;;;;;;;6.28;100.00;99220.22;10544461;28;20051;-60
2021/12/28 06:20:23;;;;;;;47.28;12.68;;;;;;;6.28;100.00;99220.22;10544185;28;20506;-60
2021/12/28 06:25:25;;;;;;;38.58;10.88;;;;;;;6.38;100.00;99205.69;10544005;28;20047;-60
2021/12/28 06:30:27;;;;;;;36.88;9.77;;;;;;;6.43;100.00;99207.97;10543878;28;20048;-61
2021/12/28 06:35:30;;;;;;;38.97;10.63;;;;;;;6.38;100.00;99207.44;10543660;28;20040;-60
2021/12/28 06:40:32;;;;;;;38.03;10.68;;;;;;;6.58;100.00;99206.16;10543357;28;20048;-59
2021/12/28 06:45:35;;;;;;;38.72;9.98;;;;;;;6.57;100.00;99205.28;10543249;28;20055;-60
2021/12/28 06:50:37;;;;;;;36.17;9.07;;;;;;;6.51;100.00;99196.13;10542894;28;20044;-59
2021/12/28 06:55:40;;;;;;;46.20;11.00;;;;;;;6.51;100.00;99196.13;10542806;28;20369;-60
2021/12/28 07:00:42;;;;;;;36.30;8.95;;;;;;;6.58;100.00;99196.56;10542755;28;20048;-60
2021/12/28 07:05:44;;;;;;;24.35;8.27;;;;;;;6.72;100.00;99192.22;10541791;28;20059;-60
2021/12/28 07:10:47;;;;;;;39.72;9.90;;;;;;;6.66;100.00;99183.06;10541759;28;20052;-60
2021/12/28 07:15:49;;;;;;;28.65;7.82;;;;;;;6.84;100.00;99170.56;10542032;28;20488;-60
2021/12/28 07:20:52;;;;;;;37.63;9.93;;;;;;;6.80;100.00;99166.53;10542317;28;20048;-60
2021/12/28 07:25:54;;;;;;;43.50;9.02;;;;;;;6.79;100.00;99154.44;10541303;28;20048;-60
2021/12/28 07:30:57;;;;;;;44.83;11.48;;;;;;;6.77;100.00;99153.72;10541523;28;20081;-60
2021/12/28 07:35:59;;;;;;;38.47;9.30;;;;;;;6.90;100.00;99166.75;10541380;28;20044;-60
2021/12/28 07:41:01;;;;;;;29.08;8.93;;;;;;;6.87;100.00;99165.16;10541467;28;20530;-59
2021/12/28 07:46:04;;;;;;;34.08;8.75;;;;;;;6.95;100.00;99155.06;10541035;28;20055;-60
2021/12/28 07:51:07;;;;;;;28.48;8.27;;;;;;;6.99;100.00;99153.09;10541220;28;20058;-60
2021/12/28 07:56:09;;;;;;;35.10;10.10;;;;;;;6.91;100.00;99153.63;10540835;28;20044;-60
2021/12/28 08:01:11;;;;;;;28.13;10.13;;;;;;;7.05;100.00;99155.28;10540401;28;20487;-60
2021/12/28 08:06:14;;;;;;;27.77;8.40;;;;;;;7.17;100.00;99159.63;10540411;28;20087;-60
2021/12/28 08:11:16;;;;;;;30.15;10.45;;;;;;;7.10;100.00;99161.00;10540673;28;20404;-61
2021/12/28 08:16:19;;;;;;;35.42;10.55;;;;;;;7.09;100.00;99156.72;10539513;28;20400;-61
2021/12/28 08:21:21;;;;;;;26.88;8.02;;;;;;;7.11;100.00;99151.41;10540119;28;20106;-60
2021/12/28 08:26:24;;;;;;;27.88;8.18;;;;;;;7.15;100.00;99147.66;10539730;28;20047;-61
2021/12/28 08:31:26;;;;;;;24.52;8.77;;;;;;;7.29;100.00;99144.91;10540217;28;20044;-61
2021/12/28 08:36:29;;;;;;;23.58;8.95;;;;;;;7.22;100.00;99139.31;10539553;28;20530;-61
2021/12/28 08:41:31;;;;;;;30.92;8.23;;;;;;;7.31;100.00;99137.00;10539629;28;20056;-61
2021/12/28 08:46:34;;;;;;;18.38;6.18;;;;;;;7.50;100.00;99132.16;10539331;28;20044;-61
2021/12/28 08:51:38;;;;;;;19.42;7.45;;;;;;;7.48;100.00;99126.25;10539844;28;20090;-61
2021/12/28 08:56:40;;;;;;;20.73;7.53;;;;;;;7.38;100.00;99110.44;10539331;28;20044;-61
2021/12/28 09:01:43;;;;;;;15.27;5.63;;;;;;;7.56;100.00;99123.06;10539083;28;20488;-61
2021/12/28 09:06:46;;;;;;;15.32;8.30;;;;;;;7.53;100.00;99111.13;10538628;28;20438;-60
2021/12/28 09:11:48;;;;;;;22.05;9.70;;;;;;;7.53;100.00;99113.72;10537495;28;20048;-60
2021/12/28 09:16:51;;;;;;;17.55;9.70;;;;;;;7.71;100.00;99106.34;10538594;28;20377;-61
2021/12/28 09:21:53;;;;;;;16.52;8.48;;;;;;;7.70;100.00;99101.22;10538620;28;20058;-61
2021/12/28 09:26:56;;;;;;;22.50;12.32;;;;;;;7.67;100.00;99106.69;10539296;28;20047;-61
2021/12/28 09:31:59;;;;;;;12.70;8.70;;;;;;;7.84;100.00;99102.84;10542274;28;20056;-61
2021/12/28 09:37:02;;;;;;;14.75;10.45;;;;;;;7.84;100.00;99098.47;10546127;28;20471;-60
2021/12/28 09:42:05;;;;;;;13.55;8.25;;;;;;;8.03;100.00;99089.31;10545707;28;20052;-60
2021/12/28 09:47:08;;;;;;;19.65;10.45;;;;;;;7.92;100.00;99084.91;10546120;28;20044;-60
2021/12/28 09:52:12;;;;;;;13.13;11.40;;;;;;;7.91;100.00;99083.22;10544237;28;20058;-60
2021/12/28 09:57:18;;;;;;;11.65;9.85;;;;;;;7.95;100.00;99082.03;10545445;28;20044;-60
2021/12/28 10:02:20;;;;;;;14.70;11.00;;;;;;;7.90;100.00;99071.97;10545160;28;20131;-62
2021/12/28 10:07:26;;;;;;;14.98;11.60;;;;;;;8.05;100.00;99074.38;10545413;28;20044;-60
2021/12/28 10:12:33;;;;;;;13.23;9.15;;;;;;;8.15;100.00;99057.94;10544737;28;20052;-61
2021/12/28 10:17:37;;;;;;;15.85;11.02;;;;;;;8.12;100.00;99052.97;10544547;28;20085;-61
2021/12/28 10:22:48;;;;;;;13.00;9.93;;;;;;;8.14;100.00;99037.22;10543025;28;20054;-61
2021/12/28 10:28:09;;;;;;;18.80;12.30;;;;;;;8.24;100.00;99034.72;10543864;28;20506;-61
2021/12/28 10:33:18;;;;;;;15.10;10.60;;;;;;;8.28;100.00;99023.13;10542674;28;20044;-61
2021/12/28 10:38:26;;;;;;;12.02;9.40;;;;;;;8.35;100.00;99021.69;10542906;28;20051;-61
2021/12/28 10:43:31;;;;;;;9.95;8.98;;;;;;;8.40;100.00;99003.91;10540795;28;20415;-60
2021/12/28 10:48:38;;;;;;;12.55;8.80;;;;;;;8.50;100.00;98993.66;10543159;28;20511;-61
2021/12/28 10:54:12;;;;;;;13.80;9.27;;;;;;;8.32;100.00;98980.19;10542056;28;20040;-60
2021/12/28 10:59:22;;;;;;;18.45;11.77;;;;;;;8.53;100.00;98973.34;10543548;28;20051;-61
2021/12/28 11:04:32;;;;;;;12.15;8.77;;;;;;;8.45;100.00;98973.13;10542730;28;20060;-61
2021/12/28 11:09:35;;;;;;;17.80;10.82;;;;;;;8.66;100.00;98957.59;10542742;28;20059;-60
2021/12/28 11:14:38;;;;;;;11.70;10.07;;;;;;;8.60;100.00;98947.63;10540952;28;20052;-60
2021/12/28 11:19:40;;;;;;;12.30;9.02;;;;;;;8.64;100.00;98938.63;10542106;28;20040;-60
2021/12/28 11:24:47;;;;;;;14.20;9.80;;;;;;;8.70;100.00;98932.09;10541710;28;20055;-61
2021/12/28 11:29:49;;;;;;;11.32;9.63;;;;;;;8.73;100.00;98919.63;10541434;28;20048;-61
2021/12/28 11:34:52;;;;;;;10.23;8.75;;;;;;;8.80;100.00;98906.91;10539896;28;20396;-61
2021/12/28 11:39:59;;;;;;;9.25;8.35;;;;;;;8.72;100.00;98904.94;10541347;28;20052;-61
2021/12/28 11:45:02;;;;;;;15.13;9.80;;;;;;;8.74;100.00;98891.75;10541001;28;20064;-61
2021/12/28 11:50:08;;;;;;;10.65;8.60;;;;;;;8.91;100.00;98880.78;10541297;28;20151;-61
2021/12/28 11:55:10;;;;;;;9.45;8.35;;;;;;;8.88;100.00;98875.81;10539155;28;20048;-60
2021/12/28 12:00:14;;;;;;;8.88;7.13;;;;;;;8.89;100.00;98853.13;10540747;28;20075;-60
2021/12/28 12:05:21;;;;;;;10.88;7.28;;;;;;;8.89;100.00;98846.16;10540304;28;20051;-60
2021/12/28 12:10:27;;;;;;;10.20;7.53;;;;;;;9.01;100.00;98843.47;10540758;28;20067;-61
2021/12/28 12:15:36;;;;;;;9.93;6.43;;;;;;;8.99;100.00;98832.34;10539966;28;20044;-60
2021/12/28 12:20:44;;;;;;;7.95;5.88;;;;;;;8.97;100.00;98832.47;10540129;28;20101;-60
2021/12/28 12:25:50;;;;;;;3.83;3.53;;;;;;;8.95;100.00;98836.16;10538737;28;20052;-60
2021/12/28 12:30:54;;;;;;;3.67;3.22;;;;;;;9.10;100.00;98846.16;10538890;28;20040;-61
2021/12/28 12:35:59;;;;;;;4.63;2.22;;;;;;;8.77;100.00;98857.56;10538223;28;20093;-60
2021/12/28 12:41:13;;;;;;;8.63;3.03;;;;;;;8.73;100.00;98864.81;10539719;28;20044;-60
2021/12/28 12:46:28;;;;;;;13.52;2.88;;;;;;;8.49;100.00;98880.66;10539458;28;20044;-61
2021/12/28 12:51:34;;;;;;;8.75;2.45;;;;;;;8.27;100.00;98884.13;10539327;28;20070;-61
2021/12/28 12:56:40;;;;;;;12.20;3.50;;;;;;;8.17;100.00;98884.00;10539088;28;20044;-60
2021/12/28 13:01:42;;;;;;;20.02;4.55;;;;;;;8.25;100.00;98890.38;10539053;28;20510;-62
2021/12/28 13:06:44;;;;;;;13.70;3.15;;;;;;;8.41;100.00;98897.84;10542273;28;20055;-61
2021/12/28 13:11:47;;;;;;;21.67;5.70;;;;;;;8.34;100.00;98898.31;10546658;28;20048;-62
2021/12/28 13:17:14;;;;;;;16.92;4.55;;;;;;;8.46;100.00;98900.94;10547143;28;20040;-61
2021/12/28 13:22:17;;;;;;;19.85;4.75;;;;;;;8.73;100.00;98895.31;10545558;28;20399;-61
2021/12/28 13:27:19;;;;;;;26.95;5.63;;;;;;;8.85;100.00;98896.09;10546491;28;20499;-61
2021/12/28 13:32:37;;;;;;;16.25;4.10;;;;;;;8.98;100.00;98890.72;10546082;28;20514;-61
2021/12/28 13:37:46;;;;;;;30.98;5.40;;;;;;;9.07;100.00;98898.63;10545783;28;20501;-61
2021/12/28 13:43:01;;;;;;;32.40;4.95;;;;;;;9.04;100.00;98898.88;10545954;28;20059;-59
2021/12/28 13:48:12;;;;;;;31.80;5.20;;;;;;;9.16;100.00;98901.44;10545387;28;20051;-60
2021/12/28 13:53:16;;;;;;;26.80;5.68;;;;;;;8.84;100.00;98915.31;10544085;28;20056;-60
2021/12/28 13:58:21;;;;;;;27.30;5.32;;;;;;;8.87;100.00;98912.47;10545207;28;20044;-60
2021/12/28 14:03:24;;;;;;;33.70;6.03;;;;;;;8.87;100.00;98910.69;10545496;28;20051;-60
2021/12/28 14:08:26;;;;;;;43.85;8.15;;;;;;;8.72;100.00;98904.94;10544648;28;20048;-60
2021/12/28 14:13:35;;;;;;;52.78;6.60;;;;;;;8.78;100.00;98908.81;10543192;28;20400;-60
2021/12/28 14:18:44;;;;;;;44.40;7.05;;;;;;;8.53;100.00;98915.97;10544199;28;20404;-61
2021/12/28 14:23:58;;;;;;;22.63;3.90;;;;;;;8.01;100.00;98935.66;10544428;28;20047;-60
2021/12/28 14:29:06;;;;;;;16.77;3.97;;;;;;;7.97;100.00;98922.03;10543931;28;20055;-61
2021/12/28 14:34:12;;;;;;;12.82;2.92;;;;;;;7.88;100.00;98938.34;10544066;28;20070;-61
2021/12/28 14:39:22;;;;;;;23.98;4.72;;;;;;;7.87;100.00;98934.09;10543954;28;20048;-61
2021/12/28 14:44:30;;;;;;;23.30;4.60;;;;;;;7.82;100.00;98926.63;10543451;28;20510;-61
2021/12/28 14:49:34;;;;;;;20.25;3.45;;;;;;;7.74;100.00;98930.75;10543404;28;20431;-61
2021/12/28 14:54:36;;;;;;;22.23;4.85;;;;;;;7.74;100.00;98936.78;10543097;28;20048;-61
2021/12/28 14:59:39;;;;;;;23.05;4.10;;;;;;;7.82;100.00;98937.03;10542862;28;20422;-60
2021/12/28 15:04:48;;;;;;;19.85;3.67;;;;;;;7.76;100.00;98937.50;10542808;28;20054;-60
2021/12/28 15:09:50;;;;;;;16.25;3.47;;;;;;;7.78;100.00;98933.03;10542935;28;20052;-59
2021/12/28 15:14:58;;;;;;;24.65;4.25;;;;;;;7.77;100.00;98928.75;10542302;28;20048;-60
2021/12/28 15:20:00;;;;;;;21.33;3.83;;;;;;;7.78;100.00;98935.63;10542190;28;20048;-61
2021/12/28 15:25:04;;;;;;;16.05;4.05;;;;;;;7.57;100.00;98953.69;10542031;28;20123;-61
2021/12/28 15:30:11;;;;;;;18.15;3.22;;;;;;;7.46;100.00;98951.03;10541387;28;20051;-60
2021/12/28 15:35:18;;;;;;;9.48;2.60;;;;;;;7.52;100.00;98954.97;10541372;28;20047;-61
2021/12/28 15:40:20;;;;;;;8.70;2.58;;;;;;;7.56;100.00;98954.63;10541682;28;20058;-60
2021/12/28 15:45:22;;;;;;;14.43;3.15;;;;;;;7.19;100.00;98959.09;10541014;28;20044;-61
2021/12/28 15:50:25;;;;;;;10.73;2.78;;;;;;;7.28;100.00;98976.66;10540797;28;20063;-60
2021/12/28 15:55:28;;;;;;;10.43;3.38;;;;;;;7.13;100.00;98981.22;10541101;28;20479;-60
2021/12/28 16:00:30;;;;;;;8.55;3.47;;;;;;;7.14;100.00;99001.06;10540636;28;20392;-60
2021/12/28 16:05:32;;;;;;;11.45;4.15;;;;;;;7.05;100.00;98996.53;10540930;28;20052;-61
2021/12/28 16:10:35;;;;;;;9.95;2.78;;;;;;;7.20;100.00;99002.41;10540304;28;20078;-60
2021/12/28 16:15:38;;;;;;;6.65;1.88;;;;;;;7.01;100.00;98998.53;10539157;28;20047;-61
2021/12/28 16:20:40;;;;;;;15.27;2.47;;;;;;;7.02;100.00;99002.78;10538917;28;20127;-60
2021/12/28 16:25:42;;;;;;;14.15;3.90;;;;;;;7.04;100.00;99013.94;10539724;28;20044;-61
2021/12/28 16:30:45;;;;;;;10.77;3.05;;;;;;;7.03;100.00;99019.25;10539940;28;20048;-61
2021/12/28 16:35:47;;;;;;;6.13;2.33;;;;;;;7.24;100.00;99022.06;10539563;28;20051;-60
2021/12/28 16:40:50;;;;;;;12.43;3.70;;;;;;;7.01;100.00;99023.69;10541780;28;20506;-61
2021/12/28 16:45:52;;;;;;;5.75;2.60;;;;;;;6.96;100.00;99026.66;10547080;28;20520;-61
2021/12/28 16:50:56;;;;;;;7.93;3.28;;;;;;;6.99;100.00;99034.25;10546983;28;20130;-61
2021/12/28 16:55:59;;;;;;;14.45;4.78;;;;;;;7.06;100.00;99032.84;10546283;28;20462;-60
2021/12/28 17:01:01;;;;;;;8.57;4.65;;;;;;;6.88;100.00;99036.75;10547696;28;20059;-60
2021/12/28 17:06:04;;;;;;;14.45;5.70;;;;;;;6.92;100.00;99040.78;10547357;28;20480;-60
2021/12/28 17:11:06;;;;;;;9.25;5.57;;;;;;;7.03;100.00;99055.66;10547090;28;20403;-60
2021/12/28 17:16:12;;;;;;;16.73;5.95;;;;;;;7.08;100.00;99077.00;10547232;28;20044;-60
2021/12/28 17:21:18;;;;;;;15.88;6.90;;;;;;;7.01;100.00;99079.19;10546091;28;20044;-60
2021/12/28 17:26:21;;;;;;;13.45;8.38;;;;;;;6.99;100.00;99080.22;10546497;28;20052;-61
2021/12/28 17:31:23;;;;;;;18.08;8.07;;;;;;;7.20;100.00;99090.91;10546404;28;20040;-61
2021/12/28 17:36:25;;;;;;;18.05;8.73;;;;;;;7.03;100.00;99098.13;10545072;28;20055;-61
2021/12/28 17:41:28;;;;;;;15.70;8.93;;;;;;;7.20;100.00;99096.13;10545940;28;20492;-61
2021/12/28 17:46:30;;;;;;;15.32;8.63;;;;;;;7.06;100.00;99113.53;10544681;28;20056;-60
2021/12/28 17:51:36;;;;;;;20.73;9.88;;;;;;;7.13;100.00;99126.09;10544898;28;20549;-61
2021/12/28 17:56:38;;;;;;;20.35;9.13;;;;;;;7.14;100.00;99133.81;10545607;28;20054;-61
2021/12/28 18:01:41;;;;;;;18.27;10.75;;;;;;;7.03;100.00;99150.16;10544595;28;20420;-61
2021/12/28 18:06:43;;;;;;;20.27;11.43;;;;;;;7.04;100.00;99158.81;10545603;28;20126;-61
2021/12/28 18:11:46;;;;;;;15.00;11.05;;;;;;;7.23;100.00;99160.97;10544629;28;20062;-61
2021/12/28 18:16:48;;;;;;;22.52;12.23;;;;;;;7.27;100.00;99165.03;10544578;28;20052;-61
2021/12/28 18:21:53;;;;;;;16.65;12.02;;;;;;;7.33;100.00;99171.56;10543443;28;20051;-61
2021/12/28 18:26:56;;;;;;;23.52;13.18;;;;;;;7.19;100.00;99170.75;10545140;28;20055;-61
2021/12/28 18:31:59;;;;;;;27.83;14.43;;;;;;;7.28;100.00;99176.25;10543641;28;20040;-61
2021/12/28 18:37:02;;;;;;;28.90;15.88;;;;;;;7.27;100.00;99183.25;10543921;28;20051;-61
2021/12/28 18:42:06;;;;;;;28.77;16.38;;;;;;;7.31;100.00;99192.50;10542584;28;20051;-61
2021/12/28 18:47:15;;;;;;;26.15;16.60;;;;;;;7.31;100.00;99217.72;10543608;28;20040;-61
2021/12/28 18:52:17;;;;;;;35.80;18.25;;;;;;;7.42;100.00;99218.63;10542982;28;20082;-61
2021/12/28 18:57:20;;;;;;;24.90;17.52;;;;;;;7.47;100.00;99228.72;10543176;28;20044;-60
2021/12/28 19:02:22;;;;;;;22.92;15.30;;;;;;;7.46;100.00;99234.03;10542542;28;20062;-60
2021/12/28 19:07:25;;;;;;;24.33;18.80;;;;;;;7.49;100.00;99239.88;10542535;28;20093;-60
2021/12/28 19:12:28;;;;;;;29.17;19.30;;;;;;;7.52;100.00;99264.88;10542554;28;20060;-61
2021/12/28 19:17:30;;;;;;;23.45;16.90;;;;;;;7.62;100.00;99268.50;10542581;28;20066;-60
2021/12/28 19:22:33;;;;;;;24.67;17.17;;;;;;;7.65;100.00;99270.91;10542001;28;20050;-60
2021/12/28 19:27:36;;;;;;;42.58;23.05;;;;;;;7.62;100.00;99274.53;10542103;28;20048;-60
2021/12/28 19:32:38;;;;;;;31.08;22.55;;;;;;;7.75;100.00;99276.28;10541636;28;20048;-61
2021/12/28 19:37:42;;;;;;;39.13;24.05;;;;;;;7.60;100.00;99288.63;10541909;28;20044;-60
2021/12/28 19:42:44;;;;;;;42.90;23.95;;;;;;;7.68;100.00;99309.75;10540478;28;20047;-61
2021/12/28 19:47:47;;;;;;;30.38;20.38;;;;;;;7.66;100.00;99327.25;10541210;28;20380;-61
2021/12/28 19:52:49;;;;;;;35.85;24.65;;;;;;;7.70;100.00;99339.16;10540817;28;20389;-61
2021/12/28 19:57:54;;;;;;;45.60;27.27;;;;;;;7.80;100.00;99355.81;10540771;28;20050;-61
2021/12/28 20:02:59;;;;;;;32.40;23.00;;;;;;;7.78;100.00;99362.06;10540906;28;20043;-61
2021/12/28 20:08:03;;;;;;;31.73;21.15;;;;;;;7.70;100.00;99373.00;10540447;28;20040;-61
2021/12/28 20:13:06;;;;;;;23.52;16.77;;;;;;;7.86;100.00;99387.59;10540183;28;20056;-61
2021/12/28 20:18:15;;;;;;;23.50;17.00;;;;;;;7.90;100.00;99404.69;10539865;28;20499;-61
2021/12/28 20:23:19;;;;;;;20.45;15.23;;;;;;;7.97;100.00;99414.59;10540004;28;20052;-61
2021/12/28 20:28:22;;;;;;;21.65;15.85;;;;;;;8.05;100.00;99439.28;10539057;28;20048;-60
2021/12/28 20:33:24;;;;;;;18.13;9.75;;;;;;;8.13;100.00;99445.63;10539605;28;20044;-61
2021/12/28 20:38:27;;;;;;;10.02;7.40;;;;;;;8.11;100.00;99446.69;10540019;28;20090;-61
2021/12/28 20:43:30;;;;;;;12.73;8.13;;;;;;;8.11;100.00;99452.72;10539481;28;20054;-60
2021/12/28 20:48:33;;;;;;;11.35;7.15;;;;;;;8.12;100.00;99457.03;10539819;28;20044;-61
2021/12/28 20:53:36;;;;;;;18.20;7.43;;;;;;;8.03;100.00;99475.88;10539415;28;20055;-60
2021/12/28 20:58:39;;;;;;;22.67;10.90;;;;;;;8.13;100.00;99499.56;10539334;28;20491;-61
2021/12/28 21:03:41;;;;;;;29.33;11.82;;;;;;;8.14;100.00;99506.44;10539394;28;20044;-60
2021/12/28 21:08:44;;;;;;;24.05;11.10;;;;;;;8.14;100.00;99511.66;10538841;28;20527;-61
2021/12/28 21:13:47;;;;;;;25.45;11.38;;;;;;;8.12;100.00;99522.19;10538237;28;20044;-61
2021/12/28 21:18:50;;;;;;;23.35;10.10;;;;;;;8.17;100.00;99540.97;10538866;28;20442;-61
2021/12/28 21:23:53;;;;;;;24.80;11.85;;;;;;;8.17;100.00;99553.19;10538432;28;20059;-62
2021/12/28 21:28:55;;;;;;;19.45;9.80;;;;;;;8.13;100.00;99575.16;10543430;28;20048;-62
2021/12/28 21:33:58;;;;;;;18.55;10.10;;;;;;;8.17;100.00;99587.06;10546249;28;20059;-62
2021/12/28 21:39:00;;;;;;;20.83;10.48;;;;;;;8.14;100.00;99595.09;10547312;28;20055;-62
2021/12/28 21:44:03;;;;;;;18.73;8.55;;;;;;;8.14;100.00;99608.13;10546083;28;20048;-61
2021/12/28 21:49:06;;;;;;;17.52;8.35;;;;;;;8.19;100.00;99606.03;10546223;28;20044;-61
2021/12/28 21:54:11;;;;;;;19.83;9.70;;;;;;;8.22;100.00;99624.09;10545423;28;20503;-61
2021/12/28 21:59:14;;;;;;;18.65;11.00;;;;;;;8.06;100.00;99642.50;10544406;28;20070;-61
2021/12/28 22:04:17;;;;;;;25.75;11.00;;;;;;;8.22;100.00;99658.00;10545343;28;20087;-60
2021/12/28 22:09:19;;;;;;;20.25;10.85;;;;;;;8.12;100.00;99677.75;10544915;28;20408;-61
2021/12/28 22:14:23;;;;;;;16.88;10.20;;;;;;;8.17;100.00;99686.16;10545045;28;20089;-61
2021/12/28 22:19:25;;;;;;;18.02;9.65;;;;;;;8.18;100.00;99703.44;10544889;28;20502;-61
2021/12/28 22:24:28;;;;;;;17.48;10.18;;;;;;;8.14;100.00;99717.63;10543161;28;20062;-61
2021/12/28 22:29:31;;;;;;;12.43;8.90;;;;;;;8.14;100.00;99731.50;10544640;28;20098;-61
2021/12/28 22:34:33;;;;;;;14.00;9.40;;;;;;;8.16;100.00;99740.03;10542976;28;20051;-62
2021/12/28 22:39:36;;;;;;;9.35;6.70;;;;;;;8.14;100.00;99752.34;10544269;28;20044;-61
2021/12/28 22:44:39;;;;;;;7.82;6.13;;;;;;;8.12;100.00;99751.63;10542568;28;20053;-60
2021/12/28 22:49:41;;;;;;;7.15;6.20;;;;;;;8.14;100.00;99764.56;10543741;28;20044;-61
2021/12/28 22:54:44;;;;;;;9.20;6.97;;;;;;;8.15;100.00;99766.22;10543305;28;20044;-60
2021/12/28 22:59:46;;;;;;;9.60;5.85;;;;;;;8.15;100.00;99780.09;10543886;28;20044;-61
2021/12/28 23:04:48;;;;;;;8.10;6.57;;;;;;;8.08;100.00;99789.22;10542523;28;20056;-60
2021/12/28 23:09:51;;;;;;;8.52;6.20;;;;;;;8.14;100.00;99801.06;10541547;28;20052;-61